sensor_id;sensor_type;location;lat;lon;timestamp;pressure;altitude;pressure_sealevel;temperature;humidity
36692;BME280;22678;52.052;4.242;2023-04-03T00:01:22;103130.50;;;6.01;64.74
36692;BME280;22678;52.052;4.242;2023-04-03T00:03:47;103030.06;;;5.38;64.88
36692;BME280;22678;52.052;4.242;2023-04-03T00:06:13;103121.19;;;5.88;64.89
36692;BME280;22678;52.052;4.242;2023-04-03T00:08:39;103117.44;;;5.83;64.79
36692;BME280;22678;52.052;4.242;2023-04-03T00:11:05;103149.41;;;5.95;64.56
36692;BME280;22678;52.052;4.242;2023-04-03T00:13:31;103120.91;;;5.82;64.59
36692;BME280;22678;52.052;4.242;2023-04-03T00:15:57;103109.09;;;5.72;64.81
36692;BME280;22678;52.052;4.242;2023-04-03T00:18:22;103098.38;;;5.66;64.43
36692;BME280;22678;52.052;4.242;2023-04-03T00:20:48;103115.22;;;5.72;64.35
36692;BME280;22678;52.052;4.242;2023-04-03T00:23:14;103130.88;;;5.72;64.70
36692;BME280;22678;52.052;4.242;2023-04-03T00:25:40;103128.13;;;5.69;64.12
36692;BME280;22678;52.052;4.242;2023-04-03T00:28:05;103144.91;;;5.74;64.23
36692;BME280;22678;52.052;4.242;2023-04-03T00:30:31;103139.56;;;5.71;64.39
36692;BME280;22678;52.052;4.242;2023-04-03T00:32:57;103132.25;;;5.64;63.77
36692;BME280;22678;52.052;4.242;2023-04-03T00:35:23;103118.06;;;5.59;63.57
36692;BME280;22678;52.052;4.242;2023-04-03T00:37:53;103131.09;;;5.59;63.27
36692;BME280;22678;52.052;4.242;2023-04-03T00:40:19;103139.09;;;5.62;63.29
36692;BME280;22678;52.052;4.242;2023-04-03T00:42:47;103122.75;;;5.48;63.26
36692;BME280;22678;52.052;4.242;2023-04-03T00:45:30;103142.34;;;5.58;63.20
36692;BME280;22678;52.052;4.242;2023-04-03T00:47:56;103150.94;;;5.55;62.98
36692;BME280;22678;52.052;4.242;2023-04-03T00:50:25;103143.56;;;5.47;63.03
36692;BME280;22678;52.052;4.242;2023-04-03T00:52:51;103142.50;;;5.43;62.86
36692;BME280;22678;52.052;4.242;2023-04-03T00:55:16;103132.50;;;5.34;62.89
36692;BME280;22678;52.052;4.242;2023-04-03T00:57:42;103122.66;;;5.29;62.73
36692;BME280;22678;52.052;4.242;2023-04-03T01:00:11;103146.81;;;5.42;62.46
36692;BME280;22678;52.052;4.242;2023-04-03T01:02:38;103128.47;;;5.23;62.51
36692;BME280;22678;52.052;4.242;2023-04-03T01:05:06;103136.38;;;5.24;62.50
36692;BME280;22678;52.052;4.242;2023-04-03T01:07:32;103162.19;;;5.36;62.33
36692;BME280;22678;52.052;4.242;2023-04-03T01:10:01;103159.19;;;5.29;62.27
36692;BME280;22678;52.052;4.242;2023-04-03T01:12:36;103160.06;;;5.29;62.09
36692;BME280;22678;52.052;4.242;2023-04-03T01:15:14;103128.66;;;5.09;62.19
36692;BME280;22678;52.052;4.242;2023-04-03T01:17:46;103143.63;;;5.14;62.08
36692;BME280;22678;52.052;4.242;2023-04-03T01:25:28;103143.31;;;5.07;62.71
36692;BME280;22678;52.052;4.242;2023-04-03T01:27:54;103151.97;;;5.06;62.05
36692;BME280;22678;52.052;4.242;2023-04-03T01:30:21;103137.78;;;5.01;62.53
36692;BME280;22678;52.052;4.242;2023-04-03T01:32:49;103158.97;;;5.07;62.20
36692;BME280;22678;52.052;4.242;2023-04-03T01:35:14;103124.94;;;4.88;62.23
36692;BME280;22678;52.052;4.242;2023-04-03T01:37:40;103148.88;;;4.97;62.53
36692;BME280;22678;52.052;4.242;2023-04-03T01:40:05;103074.47;;;4.53;62.57
36692;BME280;22678;52.052;4.242;2023-04-03T01:42:32;103158.50;;;4.98;62.46
36692;BME280;22678;52.052;4.242;2023-04-03T01:44:57;103158.25;;;4.94;62.61
36692;BME280;22678;52.052;4.242;2023-04-03T01:47:22;103145.31;;;4.79;62.80
36692;BME280;22678;52.052;4.242;2023-04-03T01:49:48;103159.00;;;4.91;62.66
36692;BME280;22678;52.052;4.242;2023-04-03T01:52:13;103130.97;;;4.70;62.85
36692;BME280;22678;52.052;4.242;2023-04-03T01:54:39;103165.41;;;4.81;62.83
36692;BME280;22678;52.052;4.242;2023-04-03T01:57:04;103157.38;;;4.77;63.20
36692;BME280;22678;52.052;4.242;2023-04-03T01:59:30;103153.78;;;4.74;63.29
36692;BME280;22678;52.052;4.242;2023-04-03T02:01:55;103152.00;;;4.73;62.98
36692;BME280;22678;52.052;4.242;2023-04-03T02:04:21;103151.84;;;4.70;63.44
36692;BME280;22678;52.052;4.242;2023-04-03T02:06:46;103166.75;;;4.73;63.32
36692;BME280;22678;52.052;4.242;2023-04-03T02:09:11;103164.06;;;4.71;63.34
36692;BME280;22678;52.052;4.242;2023-04-03T02:11:36;103145.81;;;4.55;63.34
36692;BME280;22678;52.052;4.242;2023-04-03T02:14:02;103108.81;;;4.29;63.44
36692;BME280;22678;52.052;4.242;2023-04-03T02:16:27;103180.34;;;4.67;63.69
36692;BME280;22678;52.052;4.242;2023-04-03T02:18:54;103169.59;;;4.61;63.83
36692;BME280;22678;52.052;4.242;2023-04-03T02:21:19;103151.44;;;4.46;63.91
36692;BME280;22678;52.052;4.242;2023-04-03T02:23:44;103165.59;;;4.51;63.73
36692;BME280;22678;52.052;4.242;2023-04-03T02:26:12;103188.72;;;4.62;64.07
36692;BME280;22678;52.052;4.242;2023-04-03T02:28:37;103177.72;;;4.51;64.04
36692;BME280;22678;52.052;4.242;2023-04-03T02:31:03;103183.81;;;4.51;64.35
36692;BME280;22678;52.052;4.242;2023-04-03T02:33:29;103183.91;;;4.53;64.44
36692;BME280;22678;52.052;4.242;2023-04-03T02:35:56;103194.97;;;4.49;64.35
36692;BME280;22678;52.052;4.242;2023-04-03T02:38:23;103193.91;;;4.45;64.51
36692;BME280;22678;52.052;4.242;2023-04-03T02:40:48;103175.75;;;4.30;64.57
36692;BME280;22678;52.052;4.242;2023-04-03T02:43:14;103183.63;;;4.32;64.65
36692;BME280;22678;52.052;4.242;2023-04-03T02:45:39;103188.13;;;4.34;65.08
36692;BME280;22678;52.052;4.242;2023-04-03T02:48:04;103169.19;;;4.22;64.92
36692;BME280;22678;52.052;4.242;2023-04-03T02:50:30;103177.72;;;4.19;64.64
36692;BME280;22678;52.052;4.242;2023-04-03T02:52:55;103173.09;;;4.14;65.20
36692;BME280;22678;52.052;4.242;2023-04-03T02:55:21;103191.50;;;4.17;65.11
36692;BME280;22678;52.052;4.242;2023-04-03T02:57:46;103180.16;;;4.16;65.40
36692;BME280;22678;52.052;4.242;2023-04-03T03:00:12;103197.84;;;4.22;65.24
36692;BME280;22678;52.052;4.242;2023-04-03T03:02:38;103171.78;;;4.06;65.75
36692;BME280;22678;52.052;4.242;2023-04-03T03:05:03;103187.81;;;4.13;65.57
36692;BME280;22678;52.052;4.242;2023-04-03T03:07:29;103186.59;;;4.07;65.78
36692;BME280;22678;52.052;4.242;2023-04-03T03:09:54;103189.19;;;4.07;65.70
36692;BME280;22678;52.052;4.242;2023-04-03T03:12:19;103190.00;;;4.06;66.18
36692;BME280;22678;52.052;4.242;2023-04-03T03:14:47;103179.06;;;3.96;66.48
36692;BME280;22678;52.052;4.242;2023-04-03T03:17:12;103089.25;;;3.42;66.21
36692;BME280;22678;52.052;4.242;2023-04-03T03:19:38;103178.72;;;3.90;66.40
36692;BME280;22678;52.052;4.242;2023-04-03T03:22:03;103185.06;;;3.95;66.24
36692;BME280;22678;52.052;4.242;2023-04-03T03:24:28;103192.00;;;3.95;66.48
36692;BME280;22678;52.052;4.242;2023-04-03T03:26:54;103180.06;;;3.83;66.67
36692;BME280;22678;52.052;4.242;2023-04-03T03:29:19;103209.41;;;3.96;66.83
36692;BME280;22678;52.052;4.242;2023-04-03T03:31:44;103188.06;;;3.86;66.89
36692;BME280;22678;52.052;4.242;2023-04-03T03:34:10;103203.84;;;3.90;66.80
36692;BME280;22678;52.052;4.242;2023-04-03T03:36:35;103193.63;;;3.78;67.02
36692;BME280;22678;52.052;4.242;2023-04-03T03:39:01;103198.03;;;3.79;67.46
36692;BME280;22678;52.052;4.242;2023-04-03T03:41:26;103174.63;;;3.64;66.71
36692;BME280;22678;52.052;4.242;2023-04-03T03:43:52;103182.44;;;3.64;67.09
36692;BME280;22678;52.052;4.242;2023-04-03T03:46:17;103200.47;;;3.76;67.53
36692;BME280;22678;52.052;4.242;2023-04-03T03:48:42;103209.06;;;3.75;67.22
36692;BME280;22678;52.052;4.242;2023-04-03T03:51:08;103187.38;;;3.59;67.19
36692;BME280;22678;52.052;4.242;2023-04-03T03:53:33;103195.28;;;3.61;67.40
36692;BME280;22678;52.052;4.242;2023-04-03T03:55:58;103208.44;;;3.64;67.66
36692;BME280;22678;52.052;4.242;2023-04-03T03:58:24;103201.34;;;3.61;67.59
36692;BME280;22678;52.052;4.242;2023-04-03T04:00:49;103211.06;;;3.64;67.77
36692;BME280;22678;52.052;4.242;2023-04-03T04:03:15;103211.59;;;3.58;67.63
36692;BME280;22678;52.052;4.242;2023-04-03T04:05:40;103209.78;;;3.57;67.87
36692;BME280;22678;52.052;4.242;2023-04-03T04:08:05;103204.59;;;3.57;67.97
36692;BME280;22678;52.052;4.242;2023-04-03T04:10:31;103202.59;;;3.53;68.05
36692;BME280;22678;52.052;4.242;2023-04-03T04:12:56;103204.22;;;3.51;67.93
36692;BME280;22678;52.052;4.242;2023-04-03T04:15:21;103203.97;;;3.46;68.51
36692;BME280;22678;52.052;4.242;2023-04-03T04:17:48;103204.75;;;3.45;68.34
36692;BME280;22678;52.052;4.242;2023-04-03T04:20:13;103218.88;;;3.49;68.73
36692;BME280;22678;52.052;4.242;2023-04-03T04:22:38;103200.09;;;3.40;68.39
36692;BME280;22678;52.052;4.242;2023-04-03T04:25:04;103218.66;;;3.46;68.40
36692;BME280;22678;52.052;4.242;2023-04-03T04:27:30;103197.94;;;3.32;68.86
36692;BME280;22678;52.052;4.242;2023-04-03T04:29:55;103206.56;;;3.31;69.07
36692;BME280;22678;52.052;4.242;2023-04-03T04:32:20;103221.72;;;3.39;69.04
36692;BME280;22678;52.052;4.242;2023-04-03T04:34:46;103211.66;;;3.30;69.17
36692;BME280;22678;52.052;4.242;2023-04-03T04:37:11;103222.16;;;3.31;69.25
36692;BME280;22678;52.052;4.242;2023-04-03T04:39:36;103218.56;;;3.29;69.39
36692;BME280;22678;52.052;4.242;2023-04-03T04:42:02;103215.78;;;3.26;69.79
36692;BME280;22678;52.052;4.242;2023-04-03T04:44:27;103195.22;;;3.16;69.40
36692;BME280;22678;52.052;4.242;2023-04-03T04:46:53;103221.59;;;3.22;69.73
36692;BME280;22678;52.052;4.242;2023-04-03T04:49:18;103206.41;;;3.15;69.68
36692;BME280;22678;52.052;4.242;2023-04-03T04:51:43;103213.25;;;3.13;69.85
36692;BME280;22678;52.052;4.242;2023-04-03T04:54:09;103222.22;;;3.18;69.90
36692;BME280;22678;52.052;4.242;2023-04-03T04:56:34;103233.59;;;3.20;70.15
36692;BME280;22678;52.052;4.242;2023-04-03T04:59:00;103240.44;;;3.18;69.94
36692;BME280;22678;52.052;4.242;2023-04-03T05:01:26;103238.63;;;3.17;70.22
36692;BME280;22678;52.052;4.242;2023-04-03T05:03:51;103229.53;;;3.10;70.24
36692;BME280;22678;52.052;4.242;2023-04-03T05:06:16;103231.25;;;3.10;70.21
36692;BME280;22678;52.052;4.242;2023-04-03T05:08:42;103240.03;;;3.12;70.63
36692;BME280;22678;52.052;4.242;2023-04-03T05:11:07;103236.28;;;3.07;70.57
36692;BME280;22678;52.052;4.242;2023-04-03T05:13:32;103217.53;;;2.97;70.68
36692;BME280;22678;52.052;4.242;2023-04-03T05:15:58;103230.78;;;3.02;70.73
36692;BME280;22678;52.052;4.242;2023-04-03T05:18:24;103239.66;;;3.06;70.67
36692;BME280;22678;52.052;4.242;2023-04-03T05:20:49;103239.28;;;3.00;71.03
36692;BME280;22678;52.052;4.242;2023-04-03T05:23:15;103228.91;;;3.00;70.83
36692;BME280;22678;52.052;4.242;2023-04-03T05:25:41;103232.28;;;2.98;71.29
36692;BME280;22678;52.052;4.242;2023-04-03T05:28:07;103228.63;;;2.95;71.20
36692;BME280;22678;52.052;4.242;2023-04-03T05:30:32;103244.69;;;3.03;71.42
36692;BME280;22678;52.052;4.242;2023-04-03T05:32:58;103237.50;;;2.98;71.39
36692;BME280;22678;52.052;4.242;2023-04-03T05:35:24;103233.13;;;2.97;71.48
36692;BME280;22678;52.052;4.242;2023-04-03T05:37:49;103240.91;;;2.97;71.64
36692;BME280;22678;52.052;4.242;2023-04-03T05:40:15;103256.50;;;2.97;71.53
36692;BME280;22678;52.052;4.242;2023-04-03T05:42:40;103244.91;;;2.92;71.72
36692;BME280;22678;52.052;4.242;2023-04-03T05:45:06;103261.50;;;2.94;71.67
36692;BME280;22678;52.052;4.242;2023-04-03T05:47:31;103252.72;;;2.92;71.87
36692;BME280;22678;52.052;4.242;2023-04-03T05:49:57;103254.53;;;2.93;72.42
36692;BME280;22678;52.052;4.242;2023-04-03T05:52:26;103254.53;;;2.93;72.01
36692;BME280;22678;52.052;4.242;2023-04-03T05:54:52;103259.03;;;2.96;72.13
36692;BME280;22678;52.052;4.242;2023-04-03T05:57:17;103261.72;;;2.97;72.53
36692;BME280;22678;52.052;4.242;2023-04-03T05:59:44;103261.72;;;2.97;72.32
36692;BME280;22678;52.052;4.242;2023-04-03T06:02:12;103262.31;;;2.93;72.47
36692;BME280;22678;52.052;4.242;2023-04-03T06:04:38;103271.19;;;2.97;72.47
36692;BME280;22678;52.052;4.242;2023-04-03T06:07:04;103268.69;;;2.98;72.85
36692;BME280;22678;52.052;4.242;2023-04-03T06:09:30;103281.69;;;2.98;72.63
36692;BME280;22678;52.052;4.242;2023-04-03T06:11:56;103286.09;;;3.00;72.76
36692;BME280;22678;52.052;4.242;2023-04-03T06:14:24;103286.97;;;3.00;72.88
36692;BME280;22678;52.052;4.242;2023-04-03T06:16:50;103278.47;;;3.03;73.08
36692;BME280;22678;52.052;4.242;2023-04-03T06:19:15;103261.91;;;3.01;72.90
36692;BME280;22678;52.052;4.242;2023-04-03T06:21:40;103288.63;;;3.13;73.05
36692;BME280;22678;52.052;4.242;2023-04-03T06:24:06;103292.44;;;3.18;73.11
36692;BME280;22678;52.052;4.242;2023-04-03T06:26:33;103275.81;;;3.16;73.35
36692;BME280;22678;52.052;4.242;2023-04-03T06:28:59;103290.06;;;3.36;73.22
36692;BME280;22678;52.052;4.242;2023-04-03T06:31:25;103290.59;;;3.45;73.77
36692;BME280;22678;52.052;4.242;2023-04-03T06:33:50;103298.63;;;3.63;73.10
36692;BME280;22678;52.052;4.242;2023-04-03T06:36:18;103296.75;;;3.76;73.40
36692;BME280;22678;52.052;4.242;2023-04-03T06:38:44;103290.66;;;3.90;73.17
36692;BME280;22678;52.052;4.242;2023-04-03T06:41:10;103271.78;;;3.94;72.95
36692;BME280;22678;52.052;4.242;2023-04-03T06:43:35;103275.84;;;4.04;72.45
36692;BME280;22678;52.052;4.242;2023-04-03T06:46:01;103288.91;;;4.20;72.70
36692;BME280;22678;52.052;4.242;2023-04-03T06:48:26;103283.34;;;4.29;72.19
36692;BME280;22678;52.052;4.242;2023-04-03T06:50:52;103273.44;;;4.38;71.61
36692;BME280;22678;52.052;4.242;2023-04-03T06:53:18;103296.03;;;4.54;71.40
36692;BME280;22678;52.052;4.242;2023-04-03T06:55:43;103294.22;;;4.68;71.40
36692;BME280;22678;52.052;4.242;2023-04-03T06:58:09;103289.34;;;4.74;70.90
36692;BME280;22678;52.052;4.242;2023-04-03T07:00:34;103298.16;;;4.93;70.47
36692;BME280;22678;52.052;4.242;2023-04-03T07:03:00;103287.41;;;5.03;70.57
36692;BME280;22678;52.052;4.242;2023-04-03T07:05:25;103303.16;;;5.21;69.82
36692;BME280;22678;52.052;4.242;2023-04-03T07:07:52;103290.38;;;5.26;69.64
36692;BME280;22678;52.052;4.242;2023-04-03T07:10:18;103300.00;;;5.43;69.15
36692;BME280;22678;52.052;4.242;2023-04-03T07:12:43;103311.84;;;5.55;68.41
36692;BME280;22678;52.052;4.242;2023-04-03T07:15:09;103316.91;;;5.68;68.29
36692;BME280;22678;52.052;4.242;2023-04-03T07:17:35;103295.13;;;5.68;67.86
36692;BME280;22678;52.052;4.242;2023-04-03T07:20:02;103296.75;;;5.82;67.64
36692;BME280;22678;52.052;4.242;2023-04-03T07:22:27;103309.78;;;5.99;66.89
36692;BME280;22678;52.052;4.242;2023-04-03T07:24:53;103310.38;;;6.11;66.62
36692;BME280;22678;52.052;4.242;2023-04-03T07:27:18;103309.28;;;6.24;66.10
36692;BME280;22678;52.052;4.242;2023-04-03T07:29:44;103301.44;;;6.24;65.09
36692;BME280;22678;52.052;4.242;2023-04-03T07:32:10;103319.44;;;6.36;64.97
36692;BME280;22678;52.052;4.242;2023-04-03T07:34:35;103317.50;;;6.49;65.03
36692;BME280;22678;52.052;4.242;2023-04-03T07:37:01;103319.22;;;6.67;64.65
36692;BME280;22678;52.052;4.242;2023-04-03T07:39:27;103328.38;;;6.77;63.88
36692;BME280;22678;52.052;4.242;2023-04-03T07:41:53;103308.38;;;6.77;63.55
36692;BME280;22678;52.052;4.242;2023-04-03T07:44:20;103325.44;;;6.89;62.98
36692;BME280;22678;52.052;4.242;2023-04-03T07:46:46;103323.03;;;6.93;62.93
36692;BME280;22678;52.052;4.242;2023-04-03T07:49:11;103335.06;;;7.08;63.09
36692;BME280;22678;52.052;4.242;2023-04-03T07:51:37;103321.63;;;7.19;62.19
36692;BME280;22678;52.052;4.242;2023-04-03T07:54:02;103315.09;;;7.29;62.16
36692;BME280;22678;52.052;4.242;2023-04-03T07:56:28;103327.31;;;7.48;61.59
36692;BME280;22678;52.052;4.242;2023-04-03T07:58:53;103336.94;;;7.69;61.79
36692;BME280;22678;52.052;4.242;2023-04-03T08:01:18;103347.50;;;7.92;61.25
36692;BME280;22678;52.052;4.242;2023-04-03T08:03:44;103350.38;;;7.98;59.38
36692;BME280;22678;52.052;4.242;2023-04-03T08:06:09;103346.94;;;7.99;58.46
36692;BME280;22678;52.052;4.242;2023-04-03T08:08:35;103348.03;;;8.04;58.46
36692;BME280;22678;52.052;4.242;2023-04-03T08:11:01;103346.56;;;8.11;57.42
36692;BME280;22678;52.052;4.242;2023-04-03T08:13:28;103345.94;;;8.16;58.17
36692;BME280;22678;52.052;4.242;2023-04-03T08:15:53;103342.28;;;8.34;57.30
36692;BME280;22678;52.052;4.242;2023-04-03T08:18:18;103340.78;;;8.40;56.45
36692;BME280;22678;52.052;4.242;2023-04-03T08:20:46;103344.25;;;8.61;55.98
36692;BME280;22678;52.052;4.242;2023-04-03T08:23:12;103340.53;;;8.76;55.89
36692;BME280;22678;52.052;4.242;2023-04-03T08:25:40;103350.78;;;8.93;54.51
36692;BME280;22678;52.052;4.242;2023-04-03T08:28:06;103343.94;;;8.97;54.11
36692;BME280;22678;52.052;4.242;2023-04-03T08:30:32;103340.56;;;9.01;53.36
36692;BME280;22678;52.052;4.242;2023-04-03T08:33:00;103339.25;;;9.12;53.73
36692;BME280;22678;52.052;4.242;2023-04-03T08:35:26;103352.13;;;9.28;52.02
36692;BME280;22678;52.052;4.242;2023-04-03T08:37:51;103355.94;;;9.37;50.75
36692;BME280;22678;52.052;4.242;2023-04-03T08:40:16;103339.06;;;9.30;49.93
36692;BME280;22678;52.052;4.242;2023-04-03T08:45:45;103348.06;;;9.37;48.76
36692;BME280;22678;52.052;4.242;2023-04-03T08:50:43;103355.38;;;9.45;48.16
36692;BME280;22678;52.052;4.242;2023-04-03T08:53:14;103355.59;;;9.52;48.27
36692;BME280;22678;52.052;4.242;2023-04-03T08:55:46;103363.38;;;9.73;48.02
36692;BME280;22678;52.052;4.242;2023-04-03T08:58:15;103354.81;;;9.78;47.09
36692;BME280;22678;52.052;4.242;2023-04-03T09:00:57;103354.25;;;9.87;47.09
36692;BME280;22678;52.052;4.242;2023-04-03T09:03:23;103344.13;;;9.99;46.73
36692;BME280;22678;52.052;4.242;2023-04-03T09:06:26;103345.75;;;10.22;46.30
36692;BME280;22678;52.052;4.242;2023-04-03T09:09:22;103340.16;;;10.37;45.27
36692;BME280;22678;52.052;4.242;2023-04-03T09:14:33;103336.78;;;10.41;41.30
36692;BME280;22678;52.052;4.242;2023-04-03T09:17:07;103341.94;;;10.38;41.00
36692;BME280;22678;52.052;4.242;2023-04-03T09:22:18;103347.63;;;10.50;41.49
36692;BME280;22678;52.052;4.242;2023-04-03T09:25:22;103343.44;;;10.57;40.23
36692;BME280;22678;52.052;4.242;2023-04-03T09:27:48;103344.44;;;10.60;38.93
36692;BME280;22678;52.052;4.242;2023-04-03T09:30:20;103346.50;;;10.71;38.37
36692;BME280;22678;52.052;4.242;2023-04-03T09:32:48;103334.66;;;10.85;38.19
36692;BME280;22678;52.052;4.242;2023-04-03T09:35:21;103337.59;;;10.94;35.61
36692;BME280;22678;52.052;4.242;2023-04-03T09:37:51;103330.53;;;10.93;35.02
36692;BME280;22678;52.052;4.242;2023-04-03T09:42:59;103328.78;;;10.94;32.69
36692;BME280;22678;52.052;4.242;2023-04-03T09:45:35;103327.88;;;10.93;33.10
36692;BME280;22678;52.052;4.242;2023-04-03T09:50:37;103315.66;;;11.26;33.62
36692;BME280;22678;52.052;4.242;2023-04-03T09:53:07;103322.09;;;11.35;33.46
36692;BME280;22678;52.052;4.242;2023-04-03T09:55:41;103307.88;;;11.30;32.50
36692;BME280;22678;52.052;4.242;2023-04-03T09:58:23;103322.25;;;11.42;32.75
36692;BME280;22678;52.052;4.242;2023-04-03T10:00:59;103294.25;;;11.45;32.57
36692;BME280;22678;52.052;4.242;2023-04-03T10:03:34;103307.97;;;11.65;32.29
36692;BME280;22678;52.052;4.242;2023-04-03T10:06:01;103293.19;;;11.70;32.42
36692;BME280;22678;52.052;4.242;2023-04-03T10:08:32;103296.31;;;11.90;32.52
36692;BME280;22678;52.052;4.242;2023-04-03T10:11:15;103300.53;;;12.17;32.75
36692;BME280;22678;52.052;4.242;2023-04-03T10:14:02;103301.72;;;12.30;31.69
36692;BME280;22678;52.052;4.242;2023-04-03T10:16:35;103306.16;;;12.31;30.37
36692;BME280;22678;52.052;4.242;2023-04-03T10:22:37;103285.53;;;12.15;29.20
36692;BME280;22678;52.052;4.242;2023-04-03T10:25:21;103295.31;;;12.20;29.73
36692;BME280;22678;52.052;4.242;2023-04-03T10:28:00;103284.41;;;12.41;29.86
36692;BME280;22678;52.052;4.242;2023-04-03T10:30:34;103300.66;;;12.60;29.55
36692;BME280;22678;52.052;4.242;2023-04-03T10:33:12;103292.91;;;12.66;28.08
36692;BME280;22678;52.052;4.242;2023-04-03T10:44:12;103291.88;;;12.61;28.80
36692;BME280;22678;52.052;4.242;2023-04-03T10:46:45;103290.53;;;12.78;28.82
36692;BME280;22678;52.052;4.242;2023-04-03T10:51:48;103296.50;;;13.12;28.06
36692;BME280;22678;52.052;4.242;2023-04-03T10:54:25;103279.91;;;13.18;27.97
36692;BME280;22678;52.052;4.242;2023-04-03T10:57:02;103288.66;;;13.17;27.03
36692;BME280;22678;52.052;4.242;2023-04-03T10:59:33;103271.97;;;13.18;27.97
36692;BME280;22678;52.052;4.242;2023-04-03T11:02:06;103264.88;;;13.15;27.35
36692;BME280;22678;52.052;4.242;2023-04-03T11:04:36;103274.66;;;13.21;27.98
36692;BME280;22678;52.052;4.242;2023-04-03T11:07:24;103261.75;;;13.35;28.45
36692;BME280;22678;52.052;4.242;2023-04-03T11:09:59;103277.66;;;13.38;26.64
36692;BME280;22678;52.052;4.242;2023-04-03T11:12:35;103251.09;;;13.32;25.94
36692;BME280;22678;52.052;4.242;2023-04-03T11:15:03;103265.09;;;13.28;25.68
36692;BME280;22678;52.052;4.242;2023-04-03T11:17:40;103256.25;;;13.26;26.88
36692;BME280;22678;52.052;4.242;2023-04-03T11:20:22;103261.78;;;13.38;25.36
36692;BME280;22678;52.052;4.242;2023-04-03T11:22:57;103245.78;;;13.32;26.44
36692;BME280;22678;52.052;4.242;2023-04-03T11:25:26;103253.13;;;13.45;26.82
36692;BME280;22678;52.052;4.242;2023-04-03T11:27:56;103252.34;;;13.51;26.74
36692;BME280;22678;52.052;4.242;2023-04-03T11:33:13;103239.41;;;13.65;26.37
36692;BME280;22678;52.052;4.242;2023-04-03T11:35:47;103239.59;;;13.77;25.73
36692;BME280;22678;52.052;4.242;2023-04-03T11:38:23;103252.00;;;13.81;26.40
36692;BME280;22678;52.052;4.242;2023-04-03T11:40:52;103244.88;;;13.77;25.46
36692;BME280;22678;52.052;4.242;2023-04-03T11:43:25;103237.91;;;13.81;25.89
36692;BME280;22678;52.052;4.242;2023-04-03T11:45:59;103227.22;;;13.76;25.76
36692;BME280;22678;52.052;4.242;2023-04-03T11:50:58;103226.28;;;13.73;26.07
36692;BME280;22678;52.052;4.242;2023-04-03T11:53:30;103223.66;;;13.73;26.57
36692;BME280;22678;52.052;4.242;2023-04-03T11:56:33;103214.03;;;13.79;26.15
36692;BME280;22678;52.052;4.242;2023-04-03T12:04:15;103205.56;;;13.99;25.54
36692;BME280;22678;52.052;4.242;2023-04-03T12:06:50;103211.09;;;14.16;25.01
36692;BME280;22678;52.052;4.242;2023-04-03T12:09:56;103203.91;;;14.09;24.77
36692;BME280;22678;52.052;4.242;2023-04-03T12:12:31;103212.78;;;14.11;24.28
36692;BME280;22678;52.052;4.242;2023-04-03T12:15:21;103208.25;;;14.02;23.50
36692;BME280;22678;52.052;4.242;2023-04-03T12:17:47;103215.25;;;14.00;24.17
36692;BME280;22678;52.052;4.242;2023-04-03T12:23:32;103193.47;;;14.16;24.70
36692;BME280;22678;52.052;4.242;2023-04-03T12:26:20;103184.78;;;14.25;24.43
36692;BME280;22678;52.052;4.242;2023-04-03T12:28:51;103188.44;;;14.36;24.39
36692;BME280;22678;52.052;4.242;2023-04-03T12:31:19;103189.25;;;14.31;23.44
36692;BME280;22678;52.052;4.242;2023-04-03T12:37:03;103170.19;;;13.94;23.74
36692;BME280;22678;52.052;4.242;2023-04-03T12:39:43;103168.53;;;13.99;23.84
36692;BME280;22678;52.052;4.242;2023-04-03T12:45:17;103173.25;;;14.22;22.75
36692;BME280;22678;52.052;4.242;2023-04-03T12:47:45;103171.53;;;14.24;22.05
36692;BME280;22678;52.052;4.242;2023-04-03T12:50:26;103173.31;;;14.26;22.30
36692;BME280;22678;52.052;4.242;2023-04-03T12:53:05;103158.34;;;14.27;22.74
36692;BME280;22678;52.052;4.242;2023-04-03T12:55:31;103167.34;;;14.43;22.73
36692;BME280;22678;52.052;4.242;2023-04-03T12:57:57;103143.47;;;14.38;22.13
36692;BME280;22678;52.052;4.242;2023-04-03T13:02:53;103171.78;;;14.45;22.67
36692;BME280;22678;52.052;4.242;2023-04-03T13:05:19;103164.63;;;14.38;22.58
36692;BME280;22678;52.052;4.242;2023-04-03T13:08:01;103165.66;;;14.49;23.11
36692;BME280;22678;52.052;4.242;2023-04-03T13:10:28;103150.81;;;14.61;22.77
36692;BME280;22678;52.052;4.242;2023-04-03T13:12:57;103157.31;;;14.86;22.78
36692;BME280;22678;52.052;4.242;2023-04-03T13:15:29;103143.28;;;14.96;22.67
36692;BME280;22678;52.052;4.242;2023-04-03T13:17:55;103145.16;;;15.06;21.38
36692;BME280;22678;52.052;4.242;2023-04-03T13:20:34;103140.69;;;15.01;21.89
36692;BME280;22678;52.052;4.242;2023-04-03T13:23:08;103156.69;;;15.13;22.45
36692;BME280;22678;52.052;4.242;2023-04-03T13:25:40;103164.69;;;15.18;22.84
36692;BME280;22678;52.052;4.242;2023-04-03T13:28:13;103154.06;;;15.16;22.65
36692;BME280;22678;52.052;4.242;2023-04-03T13:30:40;103155.81;;;15.14;22.97
36692;BME280;22678;52.052;4.242;2023-04-03T13:33:21;103140.00;;;15.22;22.84
36692;BME280;22678;52.052;4.242;2023-04-03T13:35:54;103132.94;;;15.21;23.07
36692;BME280;22678;52.052;4.242;2023-04-03T13:38:25;103133.84;;;15.28;23.07
36692;BME280;22678;52.052;4.242;2023-04-03T13:40:54;103137.34;;;15.23;22.53
36692;BME280;22678;52.052;4.242;2023-04-03T13:43:24;103126.72;;;15.20;23.18
36692;BME280;22678;52.052;4.242;2023-04-03T13:48:48;103139.22;;;15.34;23.20
36692;BME280;22678;52.052;4.242;2023-04-03T13:56:34;103121.38;;;15.14;24.10
36692;BME280;22678;52.052;4.242;2023-04-03T14:01:49;103122.25;;;15.15;24.23
36692;BME280;22678;52.052;4.242;2023-04-03T14:04:21;103128.44;;;15.12;24.00
36692;BME280;22678;52.052;4.242;2023-04-03T14:06:48;103122.25;;;15.16;24.29
36692;BME280;22678;52.052;4.242;2023-04-03T14:09:14;103125.84;;;15.18;24.41
36692;BME280;22678;52.052;4.242;2023-04-03T14:11:42;103109.91;;;15.14;24.31
36692;BME280;22678;52.052;4.242;2023-04-03T14:14:21;103096.69;;;15.18;24.62